createdAt,value
2023-01-11T00:02:05.967Z,9.20
2023-01-11T00:07:09.477Z,10.05
2023-01-11T00:12:14.228Z,10.80
2023-01-11T00:17:19.147Z,10.52
2023-01-11T00:22:22.826Z,8.20
2023-01-11T00:27:26.240Z,9.10
2023-01-11T00:32:30.940Z,8.25
2023-01-11T00:37:36.197Z,7.75
2023-01-11T00:42:57.091Z,6.90
2023-01-11T00:48:02.409Z,7.40
2023-01-11T00:53:06.725Z,6.57
2023-01-11T00:58:10.338Z,5.53
2023-01-11T01:03:15.111Z,6.10
2023-01-11T01:08:18.602Z,5.18
2023-01-11T01:13:39.260Z,5.90
2023-01-11T01:18:44.562Z,4.93
2023-01-11T01:23:47.966Z,4.93
2023-01-11T01:28:51.461Z,5.25
2023-01-11T01:33:57.168Z,5.03
2023-01-11T01:39:01.483Z,6.13
2023-01-11T01:44:26.451Z,5.05
2023-01-11T01:49:32.011Z,6.53
2023-01-11T01:54:40.731Z,6.85
2023-01-11T01:59:44.298Z,7.40
2023-01-11T02:04:50.036Z,6.90
2023-01-11T02:09:59.094Z,6.75
2023-01-11T02:15:03.486Z,5.70
2023-01-11T02:20:36.268Z,6.32
2023-01-11T02:26:15.576Z,4.63
2023-01-11T02:31:29.997Z,4.03
2023-01-11T02:36:40.333Z,4.35
2023-01-11T02:42:06.388Z,4.35
2023-01-11T02:47:18.375Z,5.20
2023-01-11T02:52:27.896Z,4.95
2023-01-11T02:57:34.302Z,5.30
2023-01-11T03:02:39.348Z,5.10
2023-01-11T03:07:58.280Z,6.15
2023-01-11T03:13:14.425Z,6.03
2023-01-11T03:18:38.359Z,6.43
2023-01-11T03:23:49.899Z,5.97
2023-01-11T03:28:59.188Z,6.35
2023-01-11T03:34:14.146Z,7.15
2023-01-11T03:39:25.119Z,8.23
2023-01-11T03:44:32.129Z,8.90
2023-01-11T03:49:41.463Z,7.57
2023-01-11T03:54:45.720Z,7.10
2023-01-11T03:59:50.516Z,6.40
2023-01-11T04:04:55.478Z,6.03
2023-01-11T04:09:59.736Z,6.65
2023-01-11T04:15:05.163Z,7.90
2023-01-11T04:20:12.151Z,8.07
2023-01-11T04:25:15.678Z,9.80
2023-01-11T04:30:19.435Z,6.40
2023-01-11T04:35:24.381Z,6.25
2023-01-11T04:40:28.057Z,5.70
2023-01-11T04:45:31.835Z,5.13
2023-01-11T04:50:36.676Z,5.72
2023-01-11T04:55:40.664Z,5.68
2023-01-11T05:00:44.505Z,6.97
2023-01-11T05:05:57.237Z,7.63
2023-01-11T05:11:02.309Z,4.65
2023-01-11T05:16:06.425Z,4.43
2023-01-11T05:21:12.883Z,4.10
2023-01-11T05:26:18.659Z,4.25
2023-01-11T05:31:22.326Z,4.28
2023-01-11T05:36:29.035Z,3.88
2023-01-11T05:41:32.938Z,3.92
2023-01-11T05:46:38.833Z,2.97
2023-01-11T05:51:44.103Z,3.08
2023-01-11T05:56:47.502Z,2.80
2023-01-11T06:01:51.209Z,3.03
2023-01-11T06:06:56.138Z,3.58
2023-01-11T06:11:59.594Z,3.97
2023-01-11T06:17:03.211Z,3.78
2023-01-11T06:22:08.066Z,4.72
2023-01-11T06:27:11.488Z,3.53
2023-01-11T06:32:14.872Z,3.58
2023-01-11T06:37:19.865Z,4.47
2023-01-11T06:42:23.282Z,5.90
2023-01-11T06:47:26.985Z,4.65
2023-01-11T06:52:31.774Z,4.20
2023-01-11T06:57:35.158Z,3.28
2023-01-11T07:02:38.520Z,2.45
2023-01-11T07:07:44.473Z,2.65
2023-01-11T07:12:48.160Z,2.08
2023-01-11T07:17:55.675Z,2.95
2023-01-11T07:23:01.661Z,2.58
2023-01-11T07:28:07.984Z,2.60
2023-01-11T07:33:11.845Z,2.90
2023-01-11T07:38:16.646Z,2.40
2023-01-11T07:43:23.183Z,2.20
2023-01-11T07:48:27.467Z,2.22
2023-01-11T07:53:32.289Z,2.65
2023-01-11T07:58:35.662Z,3.65
2023-01-11T08:03:39.479Z,2.83
2023-01-11T08:08:44.431Z,3.25
2023-01-11T08:14:05.617Z,3.08
2023-01-11T08:19:09.008Z,3.15
2023-01-11T08:24:13.937Z,2.53
2023-01-11T08:29:17.340Z,4.25
2023-01-11T08:34:20.750Z,3.10
2023-01-11T08:39:28.314Z,2.95
2023-01-11T08:44:35.196Z,3.05
2023-01-11T08:49:39.196Z,3.00
2023-01-11T08:54:44.084Z,2.88
2023-01-11T08:59:47.477Z,3.13
2023-01-11T09:04:51.038Z,3.38
2023-01-11T09:09:55.817Z,3.35
2023-01-11T09:14:59.837Z,3.20
2023-01-11T09:20:03.771Z,3.72
2023-01-11T09:25:10.160Z,3.75
2023-01-11T09:30:16.833Z,5.40
2023-01-11T09:35:20.746Z,4.10
2023-01-11T09:40:38.614Z,4.50
2023-01-11T09:45:46.759Z,3.60
2023-01-11T09:50:50.454Z,3.70
2023-01-11T09:55:58.154Z,5.25
2023-01-11T10:01:08.468Z,5.00
2023-01-11T10:06:18.568Z,4.68
2023-01-11T10:18:26.026Z,5.40
2023-01-11T10:22:36.492Z,4.88
2023-01-11T10:27:49.048Z,3.97
2023-01-11T10:33:10.177Z,4.40
2023-01-11T10:38:40.880Z,4.30
2023-01-11T10:43:50.498Z,4.45
2023-01-11T10:49:03.748Z,4.57
2023-01-11T10:54:18.061Z,4.50
2023-01-11T10:59:43.675Z,4.22
2023-01-11T11:05:01.650Z,3.70
2023-01-11T11:10:11.175Z,2.85
2023-01-11T11:15:21.853Z,2.40
2023-01-11T11:20:29.685Z,3.05
2023-01-11T11:25:37.447Z,3.00
2023-01-11T11:30:45.005Z,2.70
2023-01-11T11:35:57.714Z,3.10
2023-01-11T11:41:07.874Z,3.00
2023-01-11T11:46:27.550Z,2.33
2023-01-11T11:51:31.247Z,3.00
2023-01-11T11:56:37.726Z,2.47
2023-01-11T12:01:47.174Z,2.33
2023-01-11T12:07:05.932Z,2.55
2023-01-11T12:12:17.426Z,1.95
2023-01-11T12:17:25.829Z,1.83
2023-01-11T12:22:30.227Z,2.17
2023-01-11T12:27:42.852Z,1.98
2023-01-11T12:33:20.951Z,2.10
2023-01-11T12:38:40.905Z,2.50
2023-01-11T12:43:56.277Z,3.60
2023-01-11T12:49:18.602Z,3.58
2023-01-11T12:54:48.416Z,2.75
2023-01-11T13:00:11.063Z,3.20
2023-01-11T13:05:24.593Z,2.08
2023-01-11T13:10:37.804Z,2.85
2023-01-11T13:15:49.393Z,3.17
2023-01-11T13:21:02.152Z,3.78
2023-01-11T13:26:17.236Z,2.58
2023-01-11T13:31:21.286Z,2.42
2023-01-11T13:36:31.382Z,2.50
2023-01-11T13:41:42.513Z,3.63
2023-01-11T13:46:58.827Z,3.70
2023-01-11T13:52:09.486Z,3.88
2023-01-11T13:57:21.230Z,3.38
2023-01-11T14:02:35.165Z,2.97
2023-01-11T14:07:56.019Z,3.10
2023-01-11T14:13:38.900Z,3.30
2023-01-11T14:18:49.241Z,3.03
2023-01-11T14:23:55.930Z,3.33
2023-01-11T14:29:15.620Z,3.33
2023-01-11T14:34:48.546Z,2.78
2023-01-11T14:40:21.929Z,3.15
2023-01-11T14:45:41.875Z,3.20
2023-01-11T14:50:59.193Z,3.97
2023-01-11T14:56:03.969Z,3.03
2023-01-11T15:01:11.953Z,3.45
2023-01-11T15:06:18.843Z,3.90
2023-01-11T15:11:39.095Z,3.92
2023-01-11T15:17:08.280Z,4.20
2023-01-11T15:22:29.253Z,4.72
2023-01-11T15:27:36.827Z,3.67
2023-01-11T15:32:41.485Z,4.45
2023-01-11T15:37:57.790Z,4.35
2023-01-11T15:43:33.465Z,3.85
2023-01-11T15:48:52.466Z,4.75
2023-01-11T15:54:19.763Z,5.63
2023-01-11T16:00:00.864Z,4.55
2023-01-11T16:05:17.037Z,4.63
2023-01-11T16:10:36.831Z,4.40
2023-01-11T16:15:52.289Z,4.28
2023-01-11T16:21:04.629Z,4.65
2023-01-11T16:26:08.672Z,4.72
2023-01-11T16:31:12.387Z,3.83
2023-01-11T16:36:21.142Z,3.90
2023-01-11T16:41:27.065Z,3.60
2023-01-11T16:47:07.161Z,4.28
2023-01-11T16:52:48.234Z,3.17
2023-01-11T16:57:55.405Z,3.70
2023-01-11T17:03:06.702Z,3.67
2023-01-11T17:14:08.553Z,4.53
2023-01-11T17:19:17.645Z,4.22
2023-01-11T17:24:24.918Z,4.03
2023-01-11T17:29:32.627Z,4.18
2023-01-11T17:34:38.261Z,5.28
2023-01-11T17:39:47.550Z,3.70
2023-01-11T17:45:11.538Z,3.35
2023-01-11T17:50:22.902Z,3.63
2023-01-11T17:55:28.600Z,4.20
2023-01-11T18:00:34.061Z,3.22
2023-01-11T18:05:38.672Z,3.22
2023-01-11T18:10:53.965Z,4.35
2023-01-11T18:16:00.440Z,3.65
2023-01-11T18:21:03.878Z,3.83
2023-01-11T18:26:27.631Z,3.70
2023-01-11T18:36:36.285Z,4.10
2023-01-11T18:41:58.150Z,4.18
2023-01-11T18:47:03.386Z,4.68
2023-01-11T18:52:06.845Z,4.88
2023-01-11T18:57:10.558Z,5.45
2023-01-11T19:02:25.317Z,6.00
2023-01-11T19:07:29.152Z,6.82
2023-01-11T19:12:32.624Z,6.22
2023-01-11T19:17:37.954Z,7.43
2023-01-11T19:22:42.208Z,6.82
2023-01-11T19:27:45.756Z,6.10
2023-01-11T19:32:53.594Z,6.25
2023-01-11T19:37:57.633Z,5.43
2023-01-11T19:43:01.230Z,6.18
2023-01-11T19:48:06.832Z,4.63
2023-01-11T19:53:10.487Z,6.20
2023-01-11T19:58:13.938Z,5.78
2023-01-11T20:03:18.715Z,5.60
2023-01-11T20:08:22.528Z,5.75
2023-01-11T20:13:26.306Z,8.55
2023-01-11T20:18:31.129Z,8.23
2023-01-11T20:23:36.669Z,10.50
2023-01-11T20:28:40.734Z,9.90
2023-01-11T20:34:04.394Z,9.45
2023-01-11T20:39:08.509Z,7.07
2023-01-11T20:44:12.911Z,6.85
2023-01-11T20:49:18.564Z,6.93
2023-01-11T20:54:22.223Z,6.28
2023-01-11T20:59:25.748Z,5.78
2023-01-11T21:04:31.314Z,5.10
2023-01-11T21:09:36.637Z,4.72
2023-01-11T21:14:40.211Z,4.82
2023-01-11T21:19:45.068Z,4.78
2023-01-11T21:24:48.768Z,4.30
2023-01-11T21:29:52.468Z,4.82
2023-01-11T21:34:57.284Z,4.32
2023-01-11T21:40:00.760Z,4.03
2023-01-11T21:45:08.707Z,4.03
2023-01-11T21:50:13.992Z,4.63
2023-01-11T21:55:17.887Z,3.95
2023-01-11T22:00:22.028Z,4.40
2023-01-11T22:05:26.857Z,4.05
2023-01-11T22:10:30.992Z,4.38
2023-01-11T22:15:34.651Z,4.10
2023-01-11T22:20:40.775Z,4.60
2023-01-11T22:25:44.310Z,4.32
2023-01-11T22:30:47.934Z,4.53
2023-01-11T22:35:56.652Z,4.03
2023-01-11T22:41:01.173Z,4.18
2023-01-11T22:46:04.745Z,4.57
2023-01-11T22:51:10.845Z,4.18
2023-01-11T22:56:18.651Z,4.65
2023-01-11T23:01:23.654Z,4.35
2023-01-11T23:06:30.685Z,5.43
2023-01-11T23:11:56.407Z,4.55
2023-01-11T23:17:01.390Z,4.32
2023-01-11T23:22:06.807Z,4.07
2023-01-11T23:27:10.595Z,4.63
2023-01-11T23:32:14.677Z,4.65
2023-01-11T23:37:19.422Z,4.95
2023-01-11T23:42:28.849Z,5.25
2023-01-11T23:47:32.604Z,5.10
2023-01-11T23:52:37.346Z,4.82
2023-01-11T23:58:01.308Z,4.53
